Huvudsida
METAR-TAF:

METAR-TAF

Flygplatser :

Peshawar, Pakistan

latitud: 34-01N, longitud: 071-35E, höjd: 359 m

Aktuellt väderrapport

Denna rapport gjordes för 9 minuter sedan, klockan 10:00 UTC
Vind 30 kt från sydväst
Temperatur 37°C
Fuktighet 13%
Tryck
Sikt: 2500 m
Få moln på en höjd av 3000 ft, Högtornande cumulus.
Spridda moln på en höjd av 4000 ft
Brutna moln på en höjd av 10000 ft

METAR: OPPS 201000Z 23030KT 2500 DRW FEW030TCU SCT040 BKN100 37/04 Q10 04

Tid: 15:09 (10:09 UTC)

Väderprognos

Denna rapport gjordes för 5 timmar och 9 minuter sedan, klockan 05:00 UTC
Prognos gäller från 20 kl. 06 UTC till 21 kl. 12 UTC
Vind 6 kt från nord/nordväst
Sikt: 6000 m
Temporärt
från 20 kl. 12 UTC till 20 kl. 15 UTC
Vind 15 kt från nordost i byarna ända upp till 25 kt
Sikt: 4000 m
Få moln på en höjd av 4000 ft, Högtornande cumulus.
Brutna moln på en höjd av 10000 ft

TAF: OPPS 200500Z 2006/2112 33006KT 6000 NSC TEMPO 2012/2015 05015G25KT 4000 TSDS FEW040TCU BKN100

Aktuella väderrapporter och prognoser från 4000 flygplatser (METAR- och TAF-rapporter).

De tillgängliga stationerna syns som gula och röda prickar på kartan.

För musen över prickarna för att se namnen på stationerna.

Klicka sedan för att få väderrapporter och prognoser.

För att ändra kartan: Klicka på de gröna knapparna med ett svart kors på för att zooma in; den gröna knappen med ett streck på för att zooma ut; eller på de gröna pilarna för angränsande kartor.


METAR-TAF: